createdAt,value
2018-07-13T00:01:39.016Z,3.62
2018-07-13T00:04:31.794Z,3.62
2018-07-13T00:07:28.250Z,3.63
2018-07-13T00:10:19.690Z,3.47
2018-07-13T00:13:16.343Z,3.75
2018-07-13T00:16:13.872Z,3.77
2018-07-13T00:19:13.074Z,3.62
2018-07-13T00:22:05.875Z,4.00
2018-07-13T00:25:03.090Z,3.52
2018-07-13T00:27:54.250Z,3.75
2018-07-13T00:30:50.250Z,3.98
2018-07-13T00:33:41.310Z,3.70
2018-07-13T00:36:38.275Z,3.40
2018-07-13T00:39:30.467Z,3.50
2018-07-13T00:42:25.427Z,3.50
2018-07-13T00:45:17.357Z,3.33
2018-07-13T00:48:13.442Z,3.50
2018-07-13T00:51:04.613Z,3.50
2018-07-13T00:54:00.511Z,3.83
2018-07-13T00:56:52.020Z,4.00
2018-07-13T00:59:46.727Z,3.60
2018-07-13T01:02:37.657Z,3.67
2018-07-13T01:05:32.835Z,3.80
2018-07-13T01:08:24.085Z,3.80
2018-07-13T01:11:19.028Z,3.80
2018-07-13T01:14:10.830Z,3.45
2018-07-13T01:17:06.111Z,3.87
2018-07-13T01:19:57.841Z,3.72
2018-07-13T01:22:53.250Z,3.65
2018-07-13T01:25:44.890Z,4.40
2018-07-13T01:28:32.718Z,3.47
2018-07-13T01:31:24.625Z,4.15
2018-07-13T01:34:20.196Z,3.92
2018-07-13T01:37:11.465Z,3.77
2018-07-13T01:40:07.325Z,4.00
2018-07-13T01:42:59.121Z,3.90
2018-07-13T01:45:54.460Z,4.00
2018-07-13T01:48:45.961Z,4.25
2018-07-13T01:51:42.410Z,4.13
2018-07-13T01:54:33.862Z,4.00
2018-07-13T01:57:29.450Z,4.03
2018-07-13T02:00:21.435Z,4.10
2018-07-13T02:03:15.734Z,3.87
2018-07-13T02:06:07.255Z,3.45
2018-07-13T02:08:53.777Z,3.90
2018-07-13T02:11:45.566Z,4.25
2018-07-13T02:14:42.529Z,3.60
2018-07-13T02:17:33.889Z,3.90
2018-07-13T02:20:28.799Z,4.00
2018-07-13T02:23:19.789Z,3.80
2018-07-13T02:26:14.105Z,3.50
2018-07-13T02:29:06.416Z,3.90
2018-07-13T02:32:01.190Z,3.98
2018-07-13T02:34:53.883Z,3.70
2018-07-13T02:37:49.210Z,3.70
2018-07-13T02:40:40.984Z,3.80
2018-07-13T02:43:38.130Z,4.07
2018-07-13T02:46:30.860Z,4.00
2018-07-13T02:49:26.245Z,3.80
2018-07-13T02:52:17.425Z,3.42
2018-07-13T02:55:13.248Z,3.90
2018-07-13T02:58:04.605Z,3.70
2018-07-13T03:01:00.450Z,3.40
2018-07-13T03:03:51.522Z,3.52
2018-07-13T03:06:45.653Z,4.00
2018-07-13T03:09:37.360Z,4.10
2018-07-13T03:12:31.771Z,3.92
2018-07-13T03:15:25.295Z,3.62
2018-07-13T03:18:19.814Z,3.70
2018-07-13T03:21:12.285Z,3.87
2018-07-13T03:24:07.895Z,3.80
2018-07-13T03:27:00.932Z,3.80
2018-07-13T03:29:57.681Z,3.83
2018-07-13T03:32:49.133Z,3.80
2018-07-13T03:35:43.840Z,3.77
2018-07-13T03:38:35.365Z,3.80
2018-07-13T03:41:30.016Z,3.85
2018-07-13T03:44:21.105Z,3.60
2018-07-13T03:47:07.984Z,3.70
2018-07-13T03:49:59.845Z,3.58
2018-07-13T03:52:54.263Z,3.77
2018-07-13T03:55:45.050Z,3.83
2018-07-13T03:58:40.462Z,3.60
2018-07-13T04:01:31.530Z,3.83
2018-07-13T04:04:27.580Z,3.80
2018-07-13T04:07:18.661Z,3.90
2018-07-13T04:10:13.760Z,3.30
2018-07-13T04:13:05.518Z,3.90
2018-07-13T04:16:01.087Z,4.20
2018-07-13T04:18:53.065Z,4.40
2018-07-13T04:21:47.995Z,3.55
2018-07-13T04:24:39.325Z,4.00
2018-07-13T04:27:34.966Z,4.20
2018-07-13T04:30:26.200Z,4.25
2018-07-13T04:33:22.111Z,4.30
2018-07-13T04:36:13.865Z,3.85
2018-07-13T04:39:09.224Z,4.20
2018-07-13T04:42:01.053Z,4.10
2018-07-13T04:44:57.307Z,3.70
2018-07-13T04:47:48.270Z,3.92
2018-07-13T04:50:44.390Z,3.60
2018-07-13T04:53:38.542Z,3.60
2018-07-13T04:56:33.260Z,3.50
2018-07-13T04:59:24.410Z,3.30
2018-07-13T05:02:21.285Z,3.42
2018-07-13T05:05:12.294Z,3.52
2018-07-13T05:08:07.394Z,3.35
2018-07-13T05:10:58.934Z,3.70
2018-07-13T05:13:54.607Z,3.40
2018-07-13T05:16:45.949Z,3.70
2018-07-13T05:19:40.739Z,3.30
2018-07-13T05:22:32.080Z,3.25
2018-07-13T05:25:26.969Z,3.52
2018-07-13T05:28:18.414Z,2.98
2018-07-13T05:31:13.045Z,3.08
2018-07-13T05:34:04.505Z,3.30
2018-07-13T05:36:59.255Z,3.33
2018-07-13T05:39:50.365Z,3.43
2018-07-13T05:42:46.390Z,3.30
2018-07-13T05:45:37.870Z,3.27
2018-07-13T05:48:34.420Z,3.70
2018-07-13T05:51:25.762Z,3.70
2018-07-13T05:54:21.549Z,3.40
2018-07-13T05:57:12.596Z,3.10
2018-07-13T06:00:08.625Z,3.60
2018-07-13T06:02:59.545Z,3.42
2018-07-13T06:05:53.813Z,3.30
2018-07-13T06:08:36.916Z,3.17
2018-07-13T06:11:30.992Z,3.37
2018-07-13T06:14:22.649Z,2.97
2018-07-13T06:17:17.185Z,3.33
2018-07-13T06:20:08.451Z,3.20
2018-07-13T06:23:04.296Z,3.12
2018-07-13T06:25:55.612Z,3.35
2018-07-13T06:28:51.416Z,3.30
2018-07-13T06:31:42.476Z,3.10
2018-07-13T06:34:38.543Z,3.25
2018-07-13T06:37:29.553Z,3.05
2018-07-13T06:40:23.842Z,3.05
2018-07-13T06:43:15.580Z,3.20
2018-07-13T06:46:10.046Z,3.10
2018-07-13T06:49:01.202Z,3.00
2018-07-13T06:51:56.315Z,3.30
2018-07-13T06:54:47.851Z,3.47
2018-07-13T06:57:54.145Z,3.10
2018-07-13T07:01:17.579Z,3.08
2018-07-13T07:04:43.780Z,3.03
2018-07-13T07:07:36.128Z,2.98
2018-07-13T07:10:30.881Z,2.92
2018-07-13T07:13:40.275Z,3.00
2018-07-13T07:16:35.206Z,2.77
2018-07-13T07:19:26.765Z,2.80
2018-07-13T07:22:22.233Z,3.13
2018-07-13T07:25:14.640Z,2.90
2018-07-13T07:28:10.377Z,2.90
2018-07-13T07:31:03.031Z,2.85
2018-07-13T07:33:58.305Z,2.77
2018-07-13T07:36:49.296Z,2.98
2018-07-13T07:39:44.518Z,2.92
2018-07-13T07:42:35.356Z,3.05
2018-07-13T07:45:34.418Z,2.63
2018-07-13T07:48:25.422Z,2.70
2018-07-13T07:51:21.501Z,2.90
2018-07-13T07:54:12.413Z,2.80
2018-07-13T07:57:07.633Z,2.85
2018-07-13T07:59:59.354Z,2.80
2018-07-13T08:02:55.621Z,3.05
2018-07-13T08:05:39.279Z,2.97
2018-07-13T08:08:34.543Z,2.60
2018-07-13T08:11:27.373Z,3.02
2018-07-13T08:14:23.546Z,2.62
2018-07-13T08:17:14.463Z,3.02
2018-07-13T08:20:09.696Z,3.15
2018-07-13T08:23:02.399Z,3.62
2018-07-13T08:25:59.451Z,3.30
2018-07-13T08:28:52.952Z,3.25
2018-07-13T08:31:48.419Z,3.75
2018-07-13T08:34:39.555Z,3.60
2018-07-13T08:37:35.555Z,3.95
2018-07-13T08:40:26.670Z,3.50
2018-07-13T08:46:11.225Z,4.00
2018-07-13T08:49:06.101Z,4.33
2018-07-13T08:51:57.185Z,4.50
2018-07-13T08:54:52.451Z,4.20
2018-07-13T08:57:44.145Z,4.55
2018-07-13T09:00:39.368Z,4.70
2018-07-13T09:03:30.257Z,5.00
2018-07-13T09:06:25.627Z,5.22
2018-07-13T09:09:21.393Z,4.83
2018-07-13T09:12:16.327Z,5.00
2018-07-13T09:15:07.945Z,5.28
2018-07-13T09:18:04.067Z,5.42
2018-07-13T09:20:55.388Z,5.40
2018-07-13T09:23:51.465Z,5.90
2018-07-13T09:26:42.485Z,5.90
2018-07-13T09:29:38.542Z,5.45
2018-07-13T09:32:29.440Z,6.00
2018-07-13T09:35:24.792Z,5.95
2018-07-13T09:38:16.271Z,6.05
2018-07-13T09:41:10.845Z,6.00
2018-07-13T09:44:02.425Z,6.67
2018-07-13T09:46:57.243Z,6.40
2018-07-13T09:49:49.640Z,5.95
2018-07-13T09:52:44.182Z,6.00
2018-07-13T09:55:35.309Z,5.87
2018-07-13T09:58:39.426Z,7.08
2018-07-13T10:01:30.515Z,6.53
2018-07-13T10:04:25.676Z,5.70
2018-07-13T10:07:17.326Z,6.40
2018-07-13T10:10:12.771Z,5.75
2018-07-13T10:13:04.171Z,6.47
2018-07-13T10:16:00.789Z,6.22
2018-07-13T10:18:52.689Z,5.67
2018-07-13T10:21:50.534Z,5.95
2018-07-13T10:24:42.866Z,6.55
2018-07-13T10:27:40.416Z,6.10
2018-07-13T10:30:31.517Z,5.83
2018-07-13T10:33:28.371Z,5.40
2018-07-13T10:36:22.568Z,6.20
2018-07-13T10:39:19.084Z,5.55
2018-07-13T10:42:10.618Z,5.85
2018-07-13T10:45:05.447Z,5.42
2018-07-13T10:47:57.108Z,5.50
2018-07-13T10:50:52.564Z,5.37
2018-07-13T10:53:45.310Z,4.80
2018-07-13T10:56:40.603Z,5.00
2018-07-13T10:59:32.848Z,4.78
2018-07-13T11:02:28.388Z,4.57
2018-07-13T11:05:20.388Z,4.53
2018-07-13T11:08:15.728Z,4.30
2018-07-13T11:11:07.383Z,4.30
2018-07-13T11:14:03.702Z,4.45
2018-07-13T11:16:54.995Z,4.37
2018-07-13T11:19:50.543Z,4.30
2018-07-13T11:22:43.538Z,4.00
2018-07-13T11:25:39.488Z,3.83
2018-07-13T11:28:30.759Z,4.00
2018-07-13T11:31:26.675Z,3.85
2018-07-13T11:34:18.345Z,3.70
2018-07-13T11:37:14.836Z,3.58
2018-07-13T11:40:06.113Z,3.37
2018-07-13T11:43:01.920Z,3.10
2018-07-13T11:45:53.147Z,2.90
2018-07-13T11:48:47.947Z,3.12
2018-07-13T11:51:39.109Z,2.75
2018-07-13T11:54:33.132Z,2.80
2018-07-13T11:57:25.104Z,2.75
2018-07-13T12:00:19.362Z,3.05
2018-07-13T12:03:12.213Z,3.10
2018-07-13T12:06:07.627Z,2.98
2018-07-13T12:08:58.358Z,2.87
2018-07-13T12:11:54.608Z,2.75
2018-07-13T12:14:45.597Z,2.60
2018-07-13T12:17:42.384Z,2.70
2018-07-13T12:20:33.647Z,2.52
2018-07-13T12:23:29.593Z,2.40
2018-07-13T12:26:20.682Z,2.37
2018-07-13T12:29:18.356Z,2.40
2018-07-13T12:32:09.747Z,2.37
2018-07-13T12:35:06.496Z,2.50
2018-07-13T12:37:58.395Z,2.60
2018-07-13T12:40:54.544Z,2.60
2018-07-13T12:43:45.563Z,2.77
2018-07-13T12:46:41.651Z,2.67
2018-07-13T12:49:28.541Z,2.70
2018-07-13T12:52:16.111Z,2.40
2018-07-13T12:54:59.602Z,2.70
2018-07-13T12:57:48.731Z,2.50
2018-07-13T13:00:32.764Z,2.45
2018-07-13T13:03:19.412Z,2.22
2018-07-13T13:06:03.504Z,2.50
2018-07-13T13:08:50.256Z,2.05
2018-07-13T13:11:34.792Z,2.30
2018-07-13T13:14:26.512Z,2.20
2018-07-13T13:17:10.402Z,2.70
2018-07-13T13:19:58.092Z,2.17
2018-07-13T13:22:42.613Z,2.22
2018-07-13T13:25:22.529Z,2.08
2018-07-13T13:28:06.325Z,1.98
2018-07-13T13:30:53.276Z,2.05
2018-07-13T13:33:37.326Z,2.10
2018-07-13T13:36:24.236Z,2.20
2018-07-13T13:39:08.422Z,1.98
2018-07-13T13:41:56.743Z,2.12
2018-07-13T13:44:40.802Z,2.58
2018-07-13T13:47:28.415Z,2.10
2018-07-13T13:50:12.710Z,2.10
2018-07-13T13:52:59.262Z,1.98
2018-07-13T13:55:42.821Z,2.10
2018-07-13T13:58:30.938Z,2.00
2018-07-13T14:01:15.310Z,2.10
2018-07-13T14:04:02.621Z,2.05
2018-07-13T14:06:46.846Z,2.20
2018-07-13T14:09:34.327Z,1.95
2018-07-13T14:12:18.378Z,2.00
2018-07-13T14:15:12.000Z,1.83
2018-07-13T14:17:55.448Z,2.00
2018-07-13T14:20:49.433Z,1.98
2018-07-13T14:23:34.002Z,2.20
2018-07-13T14:26:22.177Z,2.05
2018-07-13T14:29:05.935Z,2.02
2018-07-13T14:31:53.819Z,2.10
2018-07-13T14:34:38.073Z,2.15
2018-07-13T14:37:24.626Z,2.00
2018-07-13T14:40:08.130Z,2.10
2018-07-13T14:42:57.107Z,1.80
2018-07-13T14:45:41.319Z,1.90
2018-07-13T14:48:29.817Z,1.77
2018-07-13T14:51:13.912Z,2.62
2018-07-13T14:54:00.523Z,1.90
2018-07-13T14:56:44.753Z,1.90
2018-07-13T14:59:31.400Z,2.27
2018-07-13T15:02:15.462Z,2.02
2018-07-13T15:05:02.157Z,1.98
2018-07-13T15:07:45.883Z,2.15
2018-07-13T15:10:33.866Z,2.20
2018-07-13T15:13:18.182Z,1.90
2018-07-13T15:16:09.174Z,2.20
2018-07-13T15:18:52.907Z,1.77
2018-07-13T15:21:41.817Z,2.00
2018-07-13T15:24:25.669Z,2.10
2018-07-13T15:27:13.818Z,1.92
2018-07-13T15:29:58.026Z,2.05
2018-07-13T15:32:49.377Z,2.08
2018-07-13T15:35:34.415Z,2.10
2018-07-13T15:38:36.808Z,2.10
2018-07-13T15:41:20.694Z,1.98
2018-07-13T15:44:08.412Z,2.20
2018-07-13T15:46:53.677Z,2.10
2018-07-13T15:49:40.157Z,2.10
2018-07-13T15:52:23.779Z,2.40
2018-07-13T15:55:12.777Z,1.90
2018-07-13T15:57:57.137Z,1.85
2018-07-13T16:00:44.462Z,1.95
2018-07-13T16:03:28.886Z,2.00
2018-07-13T16:06:16.046Z,1.80
2018-07-13T16:08:59.799Z,1.75
2018-07-13T16:11:49.587Z,1.70
2018-07-13T16:14:33.696Z,1.70
2018-07-13T16:17:21.386Z,1.72
2018-07-13T16:20:05.181Z,1.65
2018-07-13T16:22:53.906Z,1.77
2018-07-13T16:25:38.541Z,1.45
2018-07-13T16:28:25.604Z,1.60
2018-07-13T16:31:10.601Z,1.20
2018-07-13T16:33:57.281Z,1.30
2018-07-13T16:36:41.462Z,1.30
2018-07-13T16:39:29.882Z,1.10
2018-07-13T16:42:13.652Z,1.20
2018-07-13T16:45:01.741Z,1.22
2018-07-13T16:47:45.917Z,1.00
2018-07-13T16:50:34.275Z,1.30
2018-07-13T16:53:18.937Z,1.27
2018-07-13T16:56:07.733Z,1.10
2018-07-13T16:58:51.847Z,1.20
2018-07-13T17:01:31.078Z,1.22
2018-07-13T17:04:15.560Z,1.20
2018-07-13T17:07:03.788Z,1.02
2018-07-13T17:09:48.135Z,1.30
2018-07-13T17:12:36.891Z,1.40
2018-07-13T17:15:21.036Z,1.20
2018-07-13T17:18:09.032Z,1.30
2018-07-13T17:20:53.005Z,1.37
2018-07-13T17:23:40.710Z,1.55
2018-07-13T17:26:24.663Z,1.45
2018-07-13T17:29:16.362Z,1.57
2018-07-13T17:32:00.350Z,1.40
2018-07-13T17:34:47.687Z,1.30
2018-07-13T17:37:32.855Z,1.20
2018-07-13T17:40:21.247Z,1.20
2018-07-13T17:43:06.009Z,1.10
2018-07-13T17:45:54.795Z,0.90
2018-07-13T17:48:38.795Z,1.30
2018-07-13T17:51:25.635Z,1.10
2018-07-13T17:54:09.681Z,0.90
2018-07-13T17:56:58.941Z,0.90
2018-07-13T17:59:44.435Z,1.00
2018-07-13T18:02:32.586Z,1.10
2018-07-13T18:05:16.335Z,1.30
2018-07-13T18:08:06.994Z,1.20
2018-07-13T18:10:50.594Z,1.05
2018-07-13T18:16:50.735Z,1.20
2018-07-13T18:19:34.974Z,1.20
2018-07-13T18:22:23.501Z,1.47
2018-07-13T18:25:07.123Z,1.50
2018-07-13T18:27:55.027Z,1.30
2018-07-13T18:30:38.794Z,1.40
2018-07-13T18:33:26.091Z,1.10
2018-07-13T18:36:10.086Z,1.15
2018-07-13T18:38:56.635Z,1.23
2018-07-13T18:41:40.093Z,1.30
2018-07-13T18:44:27.529Z,1.10
2018-07-13T18:47:12.146Z,1.40
2018-07-13T18:50:00.110Z,1.10
2018-07-13T18:52:44.282Z,1.33
2018-07-13T18:55:32.586Z,1.20
2018-07-13T18:58:09.288Z,1.40
2018-07-13T19:00:57.888Z,1.22
2018-07-13T19:03:41.774Z,1.40
2018-07-13T19:06:29.594Z,1.57
2018-07-13T19:09:14.814Z,1.40
2018-07-13T19:12:02.237Z,1.60
2018-07-13T19:14:46.511Z,1.47
2018-07-13T19:17:34.888Z,1.50
2018-07-13T19:20:19.284Z,1.42
2018-07-13T19:23:06.575Z,1.70
2018-07-13T19:25:50.335Z,1.75
2018-07-13T19:28:37.235Z,1.70
2018-07-13T19:31:21.004Z,1.67
2018-07-13T19:34:09.067Z,1.67
2018-07-13T19:36:53.682Z,1.80
2018-07-13T19:39:41.656Z,1.80
2018-07-13T19:42:25.493Z,1.70
2018-07-13T19:45:13.358Z,1.87
2018-07-13T19:47:56.828Z,1.83
2018-07-13T19:50:49.487Z,1.75
2018-07-13T19:53:33.037Z,1.77
2018-07-13T19:56:20.295Z,1.90
2018-07-13T19:59:04.787Z,1.70
2018-07-13T20:01:52.915Z,2.10
2018-07-13T20:04:37.175Z,2.10
2018-07-13T20:07:24.495Z,2.10
2018-07-13T20:10:08.639Z,2.12
2018-07-13T20:12:56.375Z,2.10
2018-07-13T20:15:40.355Z,2.10
2018-07-13T20:18:31.367Z,1.80
2018-07-13T20:21:15.676Z,1.90
2018-07-13T20:24:03.358Z,1.87
2018-07-13T20:26:47.255Z,1.98
2018-07-13T20:29:36.294Z,2.10
2018-07-13T20:32:20.394Z,1.90
2018-07-13T20:35:07.615Z,2.17
2018-07-13T20:37:52.176Z,2.30
2018-07-13T20:40:39.254Z,2.22
2018-07-13T20:43:23.235Z,2.17
2018-07-13T20:46:11.855Z,2.17
2018-07-13T20:48:55.634Z,1.87
2018-07-13T20:51:43.617Z,2.20
2018-07-13T20:54:28.446Z,2.22
2018-07-13T20:57:17.135Z,2.00
2018-07-13T21:00:01.334Z,2.30
2018-07-13T21:02:48.895Z,2.30
2018-07-13T21:05:34.175Z,2.22
2018-07-13T21:08:21.387Z,2.35
2018-07-13T21:11:04.897Z,2.22
2018-07-13T21:13:53.174Z,2.12
2018-07-13T21:16:38.094Z,2.55
2018-07-13T21:19:25.588Z,2.40
2018-07-13T21:22:09.967Z,2.30
2018-07-13T21:24:57.381Z,2.25
2018-07-13T21:27:42.209Z,2.47
2018-07-13T21:30:30.907Z,2.62
2018-07-13T21:33:14.607Z,2.60
2018-07-13T21:36:03.447Z,2.62
2018-07-13T21:38:47.707Z,2.40
2018-07-13T21:41:36.027Z,2.50
2018-07-13T21:44:20.267Z,2.65
2018-07-13T21:47:07.788Z,2.70
2018-07-13T21:49:51.747Z,2.75
2018-07-13T21:52:39.927Z,2.70
2018-07-13T21:55:23.856Z,2.57
2018-07-13T21:58:12.911Z,2.67
2018-07-13T22:00:57.147Z,2.67
2018-07-13T22:03:44.647Z,2.50
2018-07-13T22:06:28.847Z,2.62
2018-07-13T22:09:18.147Z,2.87
2018-07-13T22:12:01.811Z,2.80
2018-07-13T22:14:48.827Z,2.87
2018-07-13T22:17:32.567Z,2.92
2018-07-13T22:20:21.615Z,3.02
2018-07-13T22:23:05.417Z,2.80
2018-07-13T22:25:53.208Z,2.70
2018-07-13T22:28:36.887Z,2.75
2018-07-13T22:31:24.927Z,2.70
2018-07-13T22:34:09.108Z,2.85
2018-07-13T22:36:56.748Z,3.15
2018-07-13T22:39:40.700Z,3.00
2018-07-13T22:42:29.288Z,3.05
2018-07-13T22:45:13.667Z,3.00
2018-07-13T22:48:01.988Z,3.02
2018-07-13T22:50:37.980Z,3.08
2018-07-13T22:53:24.468Z,3.13
2018-07-13T22:56:07.988Z,3.20
2018-07-13T22:58:57.047Z,2.98
2018-07-13T23:01:42.510Z,3.20
2018-07-13T23:04:29.639Z,3.00
2018-07-13T23:07:13.828Z,2.87
2018-07-13T23:10:02.208Z,3.05
2018-07-13T23:12:45.688Z,3.00
2018-07-13T23:15:33.948Z,2.90
2018-07-13T23:18:17.407Z,3.10
2018-07-13T23:21:04.668Z,3.05
2018-07-13T23:23:48.943Z,3.20
2018-07-13T23:26:36.448Z,3.10
2018-07-13T23:29:20.720Z,2.90
2018-07-13T23:32:07.960Z,3.30
2018-07-13T23:34:55.927Z,3.00
2018-07-13T23:37:42.548Z,3.10
2018-07-13T23:40:26.640Z,3.12
2018-07-13T23:43:15.048Z,3.30
2018-07-13T23:45:59.387Z,3.55
2018-07-13T23:48:46.731Z,2.90
2018-07-13T23:51:30.407Z,3.22
2018-07-13T23:54:17.587Z,3.10
2018-07-13T23:57:01.647Z,3.20
2018-07-13T23:59:49.226Z,2.95
